KBJC/BJC METAR and TAF weather

Enter ICAO airport designator
Station Type Date Time Source
KBJC METAR 2018/01/17 06:34 UTC NOAA

KBJC 170634Z AUTO 00000KT 10SM CLR M04/M11 A3022 RMK AO2


Station Type Date Time Source
KBJC Decoded METAR 2018/01/17 06:34 UTC NOAA

Broomfield / Jeffco, CO, United States (KBJC) 39-55N 105-07W
Jan 17, 2018 - 01:34 AM EST / 2018.01.17 0634 UTC
Wind: Calm:0
Visibility: 10 mile(s):0
Sky conditions: clear
Temperature: 24 F (-4 C)
Dew Point: 12 F (-11 C)
Relative Humidity: 58%
Pressure (altimeter): 30.22 in. Hg (1023 hPa)
ob: KBJC 170634Z AUTO 00000KT 10SM CLR M04/M11 A3022 RMK AO2
cycle: 6

Station Type Date Time Source
KBJC TAF 2018/01/17 06:22 UTC NOAA

TAF KBJC 170520Z 1706/1806 29006KT P6SM SKC
FM171700 VRB06KT P6SM FEW220
FM180300 22006KT P6SM FEW220


Example: see airport list